Time;durP1;ratioP1;P1;durP2;ratioP2;P2;SDS_P1;SDS_P2;PMS_P1;PMS_P2;Temp;Humidity;BMP_temperature;BMP_pressure;BME280_temperature;BME280_humidity;BME280_pressure;Samples;Min_cycle;Max_cycle;Signal;HPM_P1;HPM_P2
2023/05/31 00:01:10;;;;;;;0.40;0.30;;;;;;;17.71;100.00;95431.69;5012408;28;20491;-60
2023/05/31 00:03:40;;;;;;;1.57;0.57;;;;;;;17.85;100.00;95415.50;5012192;28;20476;-60
2023/05/31 00:06:11;;;;;;;0.40;0.30;;;;;;;17.42;100.00;95335.75;5012065;28;20447;-61
2023/05/31 00:08:40;;;;;;;0.40;0.20;;;;;;;17.95;100.00;95421.34;5011260;28;20452;-60
2023/05/31 00:11:09;;;;;;;0.40;0.30;;;;;;;17.95;100.00;95413.31;5011441;28;20444;-60
2023/05/31 00:13:38;;;;;;;0.43;0.27;;;;;;;17.64;100.00;95373.19;5011586;28;20441;-60
2023/05/31 00:16:07;;;;;;;0.50;0.40;;;;;;;17.94;100.00;95413.59;5011284;28;20567;-60
2023/05/31 00:18:57;;;;;;;0.60;0.30;;;;;;;17.90;100.00;95415.34;5012071;28;20535;-60
2023/05/31 00:21:28;;;;;;;0.60;0.40;;;;;;;17.90;100.00;95428.75;5012046;28;20447;-60
2023/05/31 00:23:56;;;;;;;0.40;0.20;;;;;;;17.81;100.00;95418.00;5012116;28;20491;-60
2023/05/31 00:26:25;;;;;;;1.37;0.40;;;;;;;17.51;100.00;95413.47;5011786;28;20964;-60
2023/05/31 00:28:54;;;;;;;0.60;0.40;;;;;;;17.23;100.00;95425.50;5012068;28;20517;-60
2023/05/31 00:31:22;;;;;;;0.40;0.30;;;;;;;17.14;100.00;95422.78;5012112;28;20562;-60
2023/05/31 00:33:51;;;;;;;0.40;0.30;;;;;;;17.13;100.00;95423.84;5012223;28;20435;-60
2023/05/31 00:36:19;;;;;;;0.40;0.30;;;;;;;17.14;100.00;95420.09;5011463;28;20456;-59
2023/05/31 00:38:49;;;;;;;0.40;0.30;;;;;;;17.23;100.00;95412.88;5012074;28;20440;-60
2023/05/31 00:41:18;;;;;;;0.40;0.20;;;;;;;17.33;100.00;95419.88;5011558;28;20462;-60
2023/05/31 00:43:46;;;;;;;0.50;0.30;;;;;;;16.93;100.00;95422.50;5011838;28;20555;-60
2023/05/31 00:46:26;;;;;;;0.40;0.30;;;;;;;16.42;100.00;95428.25;5011660;28;20554;-60
2023/05/31 00:48:56;;;;;;;0.47;0.30;;;;;;;16.46;100.00;95426.56;5011980;28;20443;-60
2023/05/31 00:51:27;;;;;;;0.50;0.40;;;;;;;16.28;100.00;95437.41;5012244;28;20436;-60
2023/05/31 00:53:57;;;;;;;0.40;0.20;;;;;;;16.01;100.00;95410.75;5013328;28;20437;-60
2023/05/31 00:56:26;;;;;;;0.50;0.30;;;;;;;16.12;100.00;95426.25;5012323;28;20444;-60
2023/05/31 00:58:57;;;;;;;0.97;0.97;;;;;;;16.20;100.00;95430.88;5011477;28;20950;-60
2023/05/31 01:01:27;;;;;;;0.40;0.20;;;;;;;16.63;100.00;95430.47;5011835;28;20451;-60
2023/05/31 01:03:56;;;;;;;0.40;0.20;;;;;;;16.73;100.00;95428.34;5011449;28;20437;-60
2023/05/31 01:06:25;;;;;;;0.40;0.30;;;;;;;16.78;100.00;95438.94;5012024;28;20542;-60
2023/05/31 01:08:53;;;;;;;0.40;0.20;;;;;;;17.11;100.00;95439.44;5011726;28;20444;-60
2023/05/31 01:11:36;;;;;;;0.50;0.30;;;;;;;16.73;100.00;95423.00;5015066;28;20787;-60
2023/05/31 01:14:13;;;;;;;0.40;0.30;;;;;;;16.51;100.00;95439.03;5015576;28;20513;-60
2023/05/31 01:16:48;;;;;;;0.40;0.30;;;;;;;16.61;100.00;95441.50;5015165;28;20788;-59
2023/05/31 01:19:32;;;;;;;0.47;0.30;;;;;;;16.71;100.00;95440.44;5015280;28;20467;-60
2023/05/31 01:22:14;;;;;;;0.40;0.30;;;;;;;16.92;100.00;95444.22;5015274;28;20440;-60
2023/05/31 01:24:59;;;;;;;0.40;0.30;;;;;;;17.00;100.00;95438.91;5014696;28;20515;-59
2023/05/31 01:27:30;;;;;;;0.70;0.30;;;;;;;16.72;100.00;95444.72;5014895;28;20471;-60
2023/05/31 01:30:01;;;;;;;0.40;0.37;;;;;;;16.74;100.00;95440.66;5014863;28;20952;-60
2023/05/31 01:32:30;;;;;;;1.13;0.50;;;;;;;16.76;100.00;95433.09;5014974;28;20444;-59
2023/05/31 01:34:58;;;;;;;0.40;0.30;;;;;;;16.49;100.00;95450.00;5014723;28;20502;-60
2023/05/31 01:37:26;;;;;;;0.40;0.30;;;;;;;16.52;100.00;95438.75;5015230;28;20502;-60
2023/05/31 01:39:55;;;;;;;0.40;0.30;;;;;;;16.37;100.00;95438.25;5015068;28;20455;-60
2023/05/31 01:42:24;;;;;;;0.40;0.30;;;;;;;16.75;100.00;95441.41;5014749;28;20463;-59
2023/05/31 01:44:55;;;;;;;0.40;0.30;;;;;;;16.67;100.00;95432.22;5014711;28;20510;-60
2023/05/31 01:47:25;;;;;;;0.40;0.30;;;;;;;17.09;100.00;95442.44;5014653;28;20444;-60
2023/05/31 01:49:54;;;;;;;0.40;0.30;;;;;;;16.90;100.00;95433.81;5014851;28;20487;-60
2023/05/31 01:52:22;;;;;;;0.70;0.50;;;;;;;16.93;100.00;95425.16;5014428;28;20443;-60
2023/05/31 01:54:51;;;;;;;0.40;0.20;;;;;;;17.00;100.00;95427.44;5014889;28;20467;-60
2023/05/31 01:57:21;;;;;;;0.40;0.30;;;;;;;17.21;100.00;95433.81;5014250;28;21024;-59
2023/05/31 01:59:50;;;;;;;0.77;0.40;;;;;;;17.22;100.00;95430.06;5014732;28;20468;-60
2023/05/31 02:02:20;;;;;;;0.60;0.30;;;;;;;17.38;100.00;95425.88;5014185;28;20441;-60
2023/05/31 02:04:49;;;;;;;0.40;0.30;;;;;;;17.40;100.00;95426.38;5014224;28;20471;-60
2023/05/31 02:07:17;;;;;;;0.40;0.30;;;;;;;17.21;100.00;95407.03;5014611;28;20471;-60
2023/05/31 02:09:45;;;;;;;0.40;0.30;;;;;;;17.50;100.00;95426.09;5014229;28;20759;-60
2023/05/31 02:12:14;;;;;;;0.40;0.30;;;;;;;17.53;100.00;95422.81;5014145;28;20540;-60
2023/05/31 02:14:42;;;;;;;0.40;0.30;;;;;;;17.49;100.00;95429.06;5014344;28;20976;-60
2023/05/31 02:17:13;;;;;;;0.40;0.30;;;;;;;17.59;100.00;95434.97;5014148;28;20486;-60
2023/05/31 02:19:46;;;;;;;0.40;0.20;;;;;;;17.20;100.00;95378.69;5014042;28;20440;-58
2023/05/31 02:22:15;;;;;;;0.50;0.33;;;;;;;17.46;100.00;95430.47;5013819;28;20468;-60
2023/05/31 02:24:43;;;;;;;0.40;0.20;;;;;;;17.38;100.00;95431.22;5013904;28;20987;-59
2023/05/31 02:27:12;;;;;;;0.50;0.40;;;;;;;17.50;100.00;95438.69;5014168;28;20441;-59
2023/05/31 02:29:40;;;;;;;0.80;0.60;;;;;;;17.32;100.00;95426.31;5013949;28;20436;-60
2023/05/31 02:32:09;;;;;;;0.40;0.30;;;;;;;17.30;100.00;95428.53;5014008;28;20523;-60
2023/05/31 02:34:37;;;;;;;0.57;0.37;;;;;;;17.41;100.00;95435.97;5013835;28;20498;-59
2023/05/31 02:37:07;;;;;;;0.40;0.30;;;;;;;17.41;100.00;95437.84;5013682;28;20490;-60
2023/05/31 02:39:35;;;;;;;2.63;0.53;;;;;;;17.52;100.00;95429.28;5013606;28;20490;-60
2023/05/31 02:42:04;;;;;;;0.63;0.63;;;;;;;16.86;100.00;95446.22;5013847;28;20480;-60
2023/05/31 02:44:33;;;;;;;0.40;0.20;;;;;;;17.14;100.00;95450.34;5013340;28;20522;-60
2023/05/31 02:47:01;;;;;;;0.40;0.40;;;;;;;17.14;100.00;95444.19;5013914;28;20499;-60
2023/05/31 02:49:29;;;;;;;0.47;0.43;;;;;;;17.32;100.00;95442.41;5013473;28;20451;-59
2023/05/31 02:51:58;;;;;;;0.43;0.40;;;;;;;17.09;100.00;95453.16;5013742;28;20819;-60
2023/05/31 02:54:27;;;;;;;0.50;0.30;;;;;;;17.06;100.00;95456.44;5013184;28;20441;-59
2023/05/31 02:56:56;;;;;;;0.40;0.30;;;;;;;17.02;100.00;95449.34;5013475;28;20952;-59
2023/05/31 02:59:24;;;;;;;0.60;0.50;;;;;;;17.09;100.00;95463.06;5013401;28;20520;-60
2023/05/31 03:01:53;;;;;;;0.40;0.30;;;;;;;17.21;100.00;95463.28;5013385;28;20925;-59
2023/05/31 03:04:21;;;;;;;0.90;0.37;;;;;;;16.47;100.00;95390.66;5013980;28;20487;-59
2023/05/31 03:06:49;;;;;;;0.63;0.60;;;;;;;16.67;100.00;95466.25;5013537;28;20490;-60
2023/05/31 03:09:18;;;;;;;0.40;0.30;;;;;;;16.58;100.00;95463.50;5013456;28;20444;-58
2023/05/31 03:11:47;;;;;;;0.57;0.53;;;;;;;16.57;100.00;95464.59;5013347;28;20936;-59
2023/05/31 03:14:15;;;;;;;0.40;0.30;;;;;;;16.82;100.00;95465.91;5013197;28;20944;-59
2023/05/31 03:16:45;;;;;;;0.40;0.30;;;;;;;17.03;100.00;95466.97;5012887;28;20952;-59
2023/05/31 03:19:13;;;;;;;0.50;0.50;;;;;;;17.00;100.00;95470.28;5012572;28;20452;-59
2023/05/31 03:21:42;;;;;;;0.40;0.30;;;;;;;16.92;100.00;95465.66;5012514;28;20448;-59
2023/05/31 03:24:10;;;;;;;0.67;0.50;;;;;;;16.76;100.00;95459.88;5012576;28;20538;-59
2023/05/31 03:26:39;;;;;;;2.43;0.40;;;;;;;16.79;100.00;95471.84;5012385;28;20488;-59
2023/05/31 03:29:08;;;;;;;0.50;0.30;;;;;;;16.72;100.00;95466.13;5012538;28;20451;-59
2023/05/31 03:31:37;;;;;;;0.40;0.30;;;;;;;16.84;100.00;95474.41;5012221;28;20451;-59
2023/05/31 03:34:05;;;;;;;0.40;0.20;;;;;;;17.15;100.00;95475.25;5011758;28;20440;-59
2023/05/31 03:36:33;;;;;;;1.03;0.50;;;;;;;16.83;100.00;95483.53;5012739;28;20440;-59
2023/05/31 03:39:02;;;;;;;0.50;0.30;;;;;;;16.70;100.00;95479.00;5012377;28;20447;-59
2023/05/31 03:41:30;;;;;;;0.40;0.40;;;;;;;16.32;100.00;95492.66;5012444;28;20436;-59
2023/05/31 03:43:59;;;;;;;5.40;0.93;;;;;;;16.40;100.00;95486.63;5012176;28;20444;-58
2023/05/31 03:46:28;;;;;;;0.87;0.50;;;;;;;16.11;100.00;95458.66;5012153;28;20480;-59
2023/05/31 03:48:57;;;;;;;0.63;0.40;;;;;;;16.67;100.00;95493.03;5012329;28;20449;-58
2023/05/31 03:51:26;;;;;;;0.40;0.20;;;;;;;16.91;100.00;95488.16;5012234;28;20487;-59
2023/05/31 03:53:54;;;;;;;0.50;0.40;;;;;;;17.16;100.00;95484.84;5011925;28;20447;-58
2023/05/31 03:56:23;;;;;;;0.40;0.30;;;;;;;16.97;100.00;95486.94;5003798;28;20961;-59
2023/05/31 03:58:52;;;;;;;0.40;0.37;;;;;;;17.29;100.00;95488.53;5007306;28;20440;-59
2023/05/31 04:01:20;;;;;;;0.70;0.70;;;;;;;17.49;100.00;95486.13;5012053;28;20452;-60
2023/05/31 04:03:50;;;;;;;0.70;0.70;;;;;;;17.28;100.00;95492.34;5011999;28;20444;-60
2023/05/31 04:06:20;;;;;;;0.40;0.40;;;;;;;17.00;100.00;95486.34;5012022;28;20480;-60
2023/05/31 04:08:48;;;;;;;0.80;0.67;;;;;;;16.83;100.00;95486.19;5012073;28;20440;-61
2023/05/31 04:11:16;;;;;;;0.40;0.30;;;;;;;16.87;100.00;95437.13;5011674;28;20561;-59
2023/05/31 04:13:45;;;;;;;0.50;0.40;;;;;;;17.46;100.00;95480.59;5012085;28;20444;-60
2023/05/31 04:16:13;;;;;;;0.93;0.73;;;;;;;17.38;100.00;95489.41;5012097;28;20527;-60
2023/05/31 04:18:42;;;;;;;0.50;0.43;;;;;;;17.29;100.00;95483.97;5011832;28;20448;-61
2023/05/31 04:21:12;;;;;;;0.50;0.30;;;;;;;17.57;100.00;95484.63;5012473;28;20516;-60
2023/05/31 04:23:40;;;;;;;0.50;0.50;;;;;;;17.56;100.00;95483.84;5011163;28;20468;-62
2023/05/31 04:26:16;;;;;;;0.40;0.30;;;;;;;17.64;100.00;95485.75;5011884;28;20471;-62
2023/05/31 04:28:45;;;;;;;0.50;0.40;;;;;;;17.61;100.00;95486.38;5000087;28;20440;-63
2023/05/31 04:31:13;;;;;;;1.37;0.40;;;;;;;17.81;100.00;95489.63;5011818;28;20444;-63
2023/05/31 04:33:43;;;;;;;0.33;0.20;;;;;;;17.78;100.00;95491.03;5011792;28;20436;-63
2023/05/31 04:36:13;;;;;;;0.40;0.30;;;;;;;18.05;100.00;95484.63;5011230;28;20447;-64
2023/05/31 04:38:42;;;;;;;0.40;0.30;;;;;;;18.00;100.00;95490.94;5011675;28;20972;-65
2023/05/31 04:41:10;;;;;;;0.40;0.20;;;;;;;17.95;100.00;95492.97;5011588;28;20440;-66
2023/05/31 04:43:39;;;;;;;0.60;0.53;;;;;;;17.65;100.00;95503.44;5012635;28;20894;-66
2023/05/31 04:46:09;;;;;;;0.40;0.30;;;;;;;17.69;100.00;95492.88;5015495;28;20537;-65
2023/05/31 04:48:37;;;;;;;0.60;0.50;;;;;;;17.18;100.00;95482.66;5015461;28;20448;-65
2023/05/31 04:51:06;;;;;;;1.77;1.67;;;;;;;17.17;100.00;95507.06;5015608;28;20446;-65
2023/05/31 04:53:35;;;;;;;2.30;1.60;;;;;;;17.27;100.00;95507.63;5015801;28;20464;-65
2023/05/31 04:56:06;;;;;;;0.50;0.40;;;;;;;17.19;100.00;95500.31;5015229;28;20447;-65
2023/05/31 04:58:35;;;;;;;0.57;0.57;;;;;;;17.59;100.00;95523.41;5015199;28;20923;-66
2023/05/31 05:01:03;;;;;;;0.50;0.30;;;;;;;17.05;100.00;95519.13;5002668;28;20473;-65
2023/05/31 05:03:32;;;;;;;0.70;0.40;;;;;;;17.31;100.00;95519.28;5015356;28;20436;-65
2023/05/31 05:06:02;;;;;;;0.40;0.40;;;;;;;16.92;100.00;95517.31;5015393;28;20444;-65
2023/05/31 05:08:31;;;;;;;0.60;0.50;;;;;;;17.08;100.00;95526.56;5015192;28;20447;-66
2023/05/31 05:11:01;;;;;;;0.80;0.80;;;;;;;17.38;100.00;95530.34;5015374;28;20468;-65
2023/05/31 05:13:30;;;;;;;0.50;0.40;;;;;;;17.75;100.00;95519.25;5015345;28;20527;-65
2023/05/31 05:15:58;;;;;;;0.40;0.30;;;;;;;18.12;100.00;95525.19;5033636;28;20437;-65
2023/05/31 05:18:27;;;;;;;0.50;0.30;;;;;;;18.09;100.00;95515.88;5018018;28;20448;-63
2023/05/31 05:20:56;;;;;;;0.60;0.40;;;;;;;18.52;100.00;95528.66;5015685;28;20439;-64
2023/05/31 05:23:25;;;;;;;0.43;0.33;;;;;;;18.60;100.00;95534.03;5014444;28;20445;-63
2023/05/31 05:25:54;;;;;;;0.30;0.20;;;;;;;18.34;100.00;95536.63;5015064;28;20436;-64
2023/05/31 05:28:23;;;;;;;0.33;0.20;;;;;;;18.27;100.00;95538.19;5014785;28;20538;-63
2023/05/31 05:30:53;;;;;;;0.50;0.50;;;;;;;18.23;100.00;95537.25;5015009;28;20444;-64
2023/05/31 05:33:21;;;;;;;0.40;0.20;;;;;;;18.32;100.00;95538.84;5014939;28;20464;-64
2023/05/31 05:35:49;;;;;;;0.60;0.30;;;;;;;18.10;100.00;95536.25;5014852;28;20451;-63
2023/05/31 05:38:18;;;;;;;0.40;0.27;;;;;;;18.19;100.00;95552.38;5002096;28;20466;-64
2023/05/31 05:40:46;;;;;;;0.50;0.37;;;;;;;18.40;100.00;95546.13;5014661;28;20448;-63
2023/05/31 05:43:15;;;;;;;0.60;0.30;;;;;;;18.53;100.00;95547.13;5014686;28;20960;-64
2023/05/31 05:45:44;;;;;;;0.40;0.23;;;;;;;18.51;100.00;95554.72;5014705;28;21014;-64
2023/05/31 05:48:13;;;;;;;0.40;0.40;;;;;;;18.87;100.00;95549.84;5014354;28;20476;-65
2023/05/31 05:50:42;;;;;;;0.70;0.37;;;;;;;18.89;100.00;95553.00;5014241;28;20455;-65
2023/05/31 05:53:10;;;;;;;0.70;0.40;;;;;;;18.78;100.00;95557.09;5014392;28;20471;-65
2023/05/31 05:55:38;;;;;;;0.40;0.33;;;;;;;19.10;100.00;95563.91;5013221;28;21014;-65
2023/05/31 05:58:07;;;;;;;0.80;0.50;;;;;;;18.99;100.00;95557.28;5014408;28;20583;-65
2023/05/31 06:00:35;;;;;;;0.40;0.30;;;;;;;19.39;100.00;95556.00;5013987;28;20444;-64
2023/05/31 06:03:05;;;;;;;0.40;0.37;;;;;;;19.58;100.00;95561.06;5014206;28;20472;-64
2023/05/31 06:05:34;;;;;;;0.40;0.20;;;;;;;19.60;100.00;95565.00;5013962;28;20444;-63
2023/05/31 06:08:02;;;;;;;0.50;0.50;;;;;;;19.45;100.00;95562.81;5014156;28;20487;-62
2023/05/31 06:10:30;;;;;;;0.50;0.30;;;;;;;19.63;100.00;95563.56;5012511;28;20496;-64
2023/05/31 06:12:59;;;;;;;9.60;2.30;;;;;;;19.69;100.00;95564.97;5014223;28;20444;-63
2023/05/31 06:15:27;;;;;;;0.80;0.77;;;;;;;19.95;100.00;95568.38;5014352;28;20468;-63
2023/05/31 06:17:56;;;;;;;0.80;0.30;;;;;;;20.00;100.00;95559.34;5014430;28;20440;-63
2023/05/31 06:20:26;;;;;;;1.33;1.23;;;;;;;20.00;100.00;95557.44;5013899;28;20921;-62
2023/05/31 06:22:55;;;;;;;0.40;0.30;;;;;;;19.99;100.00;95557.75;5014160;28;20828;-62
2023/05/31 06:25:23;;;;;;;0.50;0.30;;;;;;;20.13;100.00;95563.72;5013462;28;20541;-62
2023/05/31 06:27:52;;;;;;;0.60;0.37;;;;;;;20.00;100.00;95554.75;5013937;28;20476;-61
2023/05/31 06:30:21;;;;;;;0.60;0.30;;;;;;;20.21;100.00;95547.50;5013710;28;20444;-62
2023/05/31 06:32:49;;;;;;;0.80;0.40;;;;;;;20.23;100.00;95544.53;5013444;28;20475;-62
2023/05/31 06:35:18;;;;;;;0.40;0.30;;;;;;;20.53;100.00;95550.72;5013615;28;20448;-62
2023/05/31 06:37:47;;;;;;;0.40;0.30;;;;;;;20.87;100.00;95558.59;5013532;28;20506;-62
2023/05/31 06:40:16;;;;;;;2.20;0.90;;;;;;;20.85;100.00;95553.50;5013564;28;20449;-62
2023/05/31 06:42:44;;;;;;;6.83;2.30;;;;;;;21.22;100.00;95554.53;5013704;28;20448;-62
2023/05/31 06:45:13;;;;;;;0.40;0.27;;;;;;;21.31;97.02;95552.53;5013415;28;20503;-62
2023/05/31 06:47:41;;;;;;;0.50;0.50;;;;;;;21.31;99.82;95555.22;5013175;28;20476;-62
2023/05/31 06:50:11;;;;;;;0.50;0.40;;;;;;;21.19;99.96;95549.00;5013096;28;20516;-62
2023/05/31 06:52:39;;;;;;;0.50;0.50;;;;;;;21.18;100.00;95553.59;5012956;28;20490;-62
2023/05/31 06:55:10;;;;;;;0.60;0.50;;;;;;;20.48;100.00;95550.91;5013733;28;20467;-62
2023/05/31 06:57:38;;;;;;;0.50;0.40;;;;;;;20.33;100.00;95546.88;5024105;28;20448;-61
2023/05/31 07:00:09;;;;;;;1.87;1.43;;;;;;;20.17;100.00;95556.56;5012992;28;20451;-62
2023/05/31 07:02:37;;;;;;;0.50;0.40;;;;;;;20.26;100.00;95552.75;5012727;28;20483;-62
2023/05/31 07:05:06;;;;;;;0.90;0.50;;;;;;;21.05;100.00;95549.22;5013234;28;20471;-62
2023/05/31 07:07:34;;;;;;;0.53;0.40;;;;;;;21.13;100.00;95550.31;4999392;28;20475;-62
2023/05/31 07:10:03;;;;;;;1.37;1.37;;;;;;;20.71;100.00;95552.19;5013053;28;20457;-62
2023/05/31 07:12:32;;;;;;;0.40;0.30;;;;;;;21.14;100.00;95559.97;5012761;28;20436;-62
2023/05/31 07:15:01;;;;;;;0.57;0.40;;;;;;;21.19;100.00;95563.25;5012692;28;20455;-61
2023/05/31 07:17:29;;;;;;;10.23;1.23;;;;;;;20.61;100.00;95561.44;5013024;28;20445;-61
2023/05/31 07:19:58;;;;;;;0.60;0.40;;;;;;;20.79;100.00;95554.84;5012884;28;20591;-57
2023/05/31 07:22:26;;;;;;;1.20;0.93;;;;;;;21.30;100.00;95560.97;5011203;28;21011;-57
2023/05/31 07:24:55;;;;;;;0.60;0.50;;;;;;;21.47;100.00;95561.59;5012315;28;20476;-58
2023/05/31 07:27:23;;;;;;;0.97;0.50;;;;;;;20.83;100.00;95544.97;5012588;28;20468;-56
2023/05/31 07:30:02;;;;;;;2.10;1.10;;;;;;;20.83;100.00;95565.72;5129898;27;21145;-56
2023/05/31 07:32:30;;;;;;;0.47;0.40;;;;;;;20.57;100.00;95524.69;5129875;27;20435;-56
2023/05/31 07:34:59;;;;;;;0.50;0.30;;;;;;;21.62;100.00;95554.78;5129851;27;20435;-56
2023/05/31 07:37:31;;;;;;;0.40;0.30;;;;;;;22.16;95.91;95555.47;5129987;27;21026;-57
2023/05/31 07:40:00;;;;;;;1.80;0.53;;;;;;;21.80;97.74;95547.28;5129861;28;20450;-57
2023/05/31 07:42:30;;;;;;;1.53;1.43;;;;;;;21.99;96.11;95556.44;5129578;28;20437;-58
2023/05/31 07:44:59;;;;;;;0.70;0.70;;;;;;;22.23;92.72;95503.59;5129676;28;20430;-59
2023/05/31 07:47:28;;;;;;;0.40;0.40;;;;;;;22.69;89.28;95547.13;5129599;28;20516;-58
2023/05/31 07:49:57;;;;;;;0.53;0.50;;;;;;;22.60;89.58;95541.03;5129664;28;20900;-59
2023/05/31 07:52:25;;;;;;;1.90;0.70;;;;;;;21.84;91.27;95556.28;5127097;28;20555;-59
2023/05/31 07:54:53;;;;;;;2.17;1.00;;;;;;;21.96;92.38;95548.25;5119338;28;20856;-58
2023/05/31 07:57:22;;;;;;;0.67;0.57;;;;;;;22.25;91.46;95556.13;5129224;28;20957;-58
2023/05/31 07:59:51;;;;;;;0.53;0.40;;;;;;;21.99;90.66;95556.44;5129372;28;20449;-58
2023/05/31 08:02:20;;;;;;;0.73;0.70;;;;;;;22.15;91.49;95551.19;5129228;28;20439;-59
2023/05/31 08:04:50;;;;;;;0.40;0.33;;;;;;;22.45;89.60;95541.75;5129665;28;20439;-59
2023/05/31 08:07:18;;;;;;;0.50;0.50;;;;;;;23.02;86.43;95551.59;5128955;28;20440;-59
2023/05/31 08:09:47;;;;;;;1.37;0.40;;;;;;;22.79;86.15;95550.50;5129705;27;20540;-59
2023/05/31 08:12:15;;;;;;;0.70;0.70;;;;;;;23.09;85.39;95541.78;5128992;28;20771;-60
2023/05/31 08:14:46;;;;;;;0.40;0.30;;;;;;;23.09;81.86;95543.69;5129262;28;20446;-59
2023/05/31 08:17:14;;;;;;;14.20;0.40;;;;;;;23.30;82.75;95549.72;5129263;28;20484;-59
2023/05/31 08:19:43;;;;;;;0.40;0.30;;;;;;;23.32;81.58;95552.84;5128663;27;20518;-61
2023/05/31 08:22:12;;;;;;;1.03;0.93;;;;;;;22.56;84.44;95553.66;5129015;28;20434;-61
2023/05/31 08:24:41;;;;;;;0.60;0.60;;;;;;;22.62;85.02;95555.03;5128292;28;20946;-60
2023/05/31 08:27:09;;;;;;;1.23;0.43;;;;;;;22.34;85.30;95539.84;5128671;28;20443;-62
2023/05/31 08:29:38;;;;;;;1.67;0.70;;;;;;;22.55;84.65;95554.78;5128500;28;20486;-61
2023/05/31 08:32:06;;;;;;;0.60;0.50;;;;;;;23.49;82.23;95549.06;5128636;28;21006;-61
2023/05/31 08:34:35;;;;;;;0.70;0.70;;;;;;;22.77;81.51;95510.28;5128341;28;20439;-60
2023/05/31 08:37:03;;;;;;;0.40;0.30;;;;;;;23.26;81.88;95536.06;5128518;28;20431;-60
2023/05/31 08:39:33;;;;;;;0.40;0.37;;;;;;;23.05;81.27;95548.19;5124489;28;20493;-61
2023/05/31 08:42:04;;;;;;;0.50;0.30;;;;;;;23.74;78.30;95550.53;5114986;28;20432;-61
2023/05/31 08:44:51;;;;;;;0.50;0.40;;;;;;;23.76;79.27;95545.53;5114676;28;20939;-61
2023/05/31 08:47:26;;;;;;;0.80;0.70;;;;;;;24.36;77.34;95545.16;5114373;28;20531;-61
2023/05/31 08:49:56;;;;;;;0.40;0.40;;;;;;;24.10;77.86;95554.97;5114624;28;20470;-61
2023/05/31 08:52:24;;;;;;;1.27;0.40;;;;;;;23.93;75.91;95546.00;5114480;28;20441;-60
2023/05/31 08:54:55;;;;;;;0.50;0.40;;;;;;;23.90;75.78;95544.03;5114470;28;20497;-60
2023/05/31 08:57:26;;;;;;;0.57;0.43;;;;;;;24.12;77.79;95539.16;5114691;28;20436;-60
2023/05/31 08:59:55;;;;;;;0.40;0.30;;;;;;;24.61;73.54;95534.91;5114738;28;20432;-62
2023/05/31 09:02:25;;;;;;;0.60;0.43;;;;;;;24.36;73.58;95531.63;5114739;28;20435;-61
2023/05/31 09:04:53;;;;;;;0.40;0.30;;;;;;;24.28;75.18;95529.91;5114694;28;20435;-61
2023/05/31 09:07:21;;;;;;;0.47;0.37;;;;;;;24.38;73.50;95534.00;5114129;28;20522;-61
2023/05/31 09:09:50;;;;;;;0.47;0.40;;;;;;;24.67;71.82;95517.22;5114465;28;20978;-61
2023/05/31 09:12:20;;;;;;;0.50;0.40;;;;;;;23.45;76.39;95499.50;5100357;28;20438;-60
2023/05/31 09:14:48;;;;;;;0.77;0.60;;;;;;;23.82;76.53;95506.28;5114295;28;20959;-61
2023/05/31 09:17:18;;;;;;;0.60;0.50;;;;;;;23.68;73.94;95509.38;5087344;28;20509;-60
2023/05/31 09:19:52;;;;;;;0.60;0.53;;;;;;;23.56;74.08;95506.75;5114400;28;20518;-60
2023/05/31 09:22:22;;;;;;;0.50;0.50;;;;;;;23.73;73.50;95505.66;5114540;28;20516;-60
2023/05/31 09:24:51;;;;;;;0.50;0.40;;;;;;;24.47;70.46;95512.91;5113877;28;20488;-60
2023/05/31 09:27:21;;;;;;;1.33;1.23;;;;;;;24.40;69.55;95499.19;5114519;28;20439;-60
2023/05/31 09:29:53;;;;;;;0.30;0.30;;;;;;;24.69;69.15;95503.34;5113571;28;20540;-59
2023/05/31 09:32:22;;;;;;;0.60;0.60;;;;;;;24.10;70.58;95500.81;5113954;28;20432;-59
2023/05/31 09:34:50;;;;;;;1.47;1.37;;;;;;;24.21;69.89;95499.16;5113999;28;20759;-59
2023/05/31 09:37:25;;;;;;;0.50;0.30;;;;;;;25.15;69.95;95488.81;5114038;28;20471;-59
2023/05/31 09:39:56;;;;;;;0.40;0.30;;;;;;;25.34;68.06;95493.47;5114066;28;20467;-59
2023/05/31 09:42:29;;;;;;;0.87;0.50;;;;;;;24.92;66.39;95490.69;5113590;28;20987;-60
2023/05/31 09:44:59;;;;;;;0.50;0.40;;;;;;;25.38;66.09;95488.88;5114047;28;21036;-59
2023/05/31 09:47:28;;;;;;;0.40;0.30;;;;;;;25.55;66.14;95478.38;5113908;28;20436;-60
2023/05/31 09:49:57;;;;;;;0.47;0.40;;;;;;;25.19;66.88;95478.84;5113425;28;20540;-60
2023/05/31 09:52:30;;;;;;;0.60;0.53;;;;;;;25.62;67.13;95459.53;5112143;28;20468;-61
2023/05/31 09:55:06;;;;;;;0.37;0.33;;;;;;;25.56;64.24;95471.03;5113880;28;20463;-62
2023/05/31 09:57:40;;;;;;;1.20;0.60;;;;;;;25.42;61.42;95465.31;5113164;28;20934;-61
2023/05/31 10:00:16;;;;;;;0.53;0.40;;;;;;;25.24;60.25;95471.22;5113675;28;20474;-61
2023/05/31 10:02:47;;;;;;;0.30;0.30;;;;;;;26.40;57.77;95458.88;5113485;28;20440;-61
2023/05/31 10:05:17;;;;;;;0.40;0.30;;;;;;;26.34;58.64;95438.59;5113430;28;20852;-60
2023/05/31 10:07:47;;;;;;;0.50;0.50;;;;;;;25.59;58.35;95454.03;5113019;28;20578;-60
2023/05/31 10:10:19;;;;;;;0.40;0.40;;;;;;;25.97;57.26;95451.19;5112755;28;20510;-60
2023/05/31 10:12:52;;;;;;;0.40;0.30;;;;;;;26.73;56.05;95441.06;5113255;28;20493;-60
2023/05/31 10:15:23;;;;;;;0.47;0.30;;;;;;;27.13;54.97;95430.31;5113049;28;20780;-61
2023/05/31 10:17:59;;;;;;;0.57;0.57;;;;;;;26.55;54.64;95440.84;5112923;28;20464;-61
2023/05/31 10:20:38;;;;;;;0.60;0.60;;;;;;;26.94;53.40;95422.34;5112771;28;20432;-62
2023/05/31 10:23:12;;;;;;;0.40;0.30;;;;;;;27.08;51.13;95428.72;5112883;28;20443;-61
2023/05/31 10:25:50;;;;;;;1.30;0.87;;;;;;;27.55;45.26;95428.06;5113122;28;20809;-63
2023/05/31 10:28:22;;;;;;;0.97;0.40;;;;;;;27.96;43.22;95417.13;5112370;28;20471;-61
2023/05/31 10:30:52;;;;;;;0.30;0.20;;;;;;;29.25;43.98;95416.34;5112616;28;21006;-60
2023/05/31 10:33:22;;;;;;;0.40;0.30;;;;;;;30.02;42.49;95406.72;5112963;28;20490;-60
2023/05/31 10:35:51;;;;;;;0.40;0.37;;;;;;;29.86;40.10;95407.09;5099624;28;20959;-60
2023/05/31 10:38:25;;;;;;;0.40;0.30;;;;;;;30.51;41.96;95400.44;5086565;28;20436;-60
2023/05/31 10:41:00;;;;;;;3.17;0.40;;;;;;;30.37;39.22;95340.28;5112613;28;20496;-60
2023/05/31 10:43:37;;;;;;;0.70;0.30;;;;;;;30.86;39.59;95392.09;5112733;28;21010;-60
2023/05/31 10:46:10;;;;;;;1.43;0.30;;;;;;;31.16;37.95;95389.66;5112688;28;20926;-60
2023/05/31 10:48:46;;;;;;;0.30;0.30;;;;;;;32.46;36.23;95379.66;5112505;28;20465;-60
2023/05/31 10:51:17;;;;;;;0.40;0.30;;;;;;;32.31;35.75;95380.22;5112503;28;20514;-60
2023/05/31 10:53:46;;;;;;;0.70;0.70;;;;;;;30.73;38.07;95378.09;5112075;28;20486;-59
2023/05/31 10:56:18;;;;;;;0.40;0.40;;;;;;;30.21;39.95;95370.00;5112422;28;20439;-61
2023/05/31 10:58:51;;;;;;;0.40;0.30;;;;;;;31.71;37.75;95369.75;5112721;28;20439;-60
2023/05/31 11:01:21;;;;;;;0.50;0.27;;;;;;;32.26;36.95;95348.50;5103221;28;20471;-61
2023/05/31 11:03:51;;;;;;;4.23;0.87;;;;;;;30.73;37.93;95364.41;5108773;28;20589;-61
2023/05/31 11:06:25;;;;;;;0.50;0.50;;;;;;;29.47;40.06;95360.59;5112646;28;20435;-61
2023/05/31 11:09:00;;;;;;;0.47;0.33;;;;;;;29.44;39.09;95350.47;5112472;28;20473;-61
2023/05/31 11:11:46;;;;;;;0.40;0.30;;;;;;;30.30;40.80;95351.22;5112281;28;20474;-61
2023/05/31 11:14:29;;;;;;;3.70;0.60;;;;;;;30.14;38.89;95338.75;5112408;28;20450;-61
2023/05/31 11:17:17;;;;;;;13.27;0.60;;;;;;;30.94;39.39;95341.63;5111749;28;20441;-60
2023/05/31 11:19:52;;;;;;;0.83;0.40;;;;;;;31.15;38.04;95333.31;5112322;28;20823;-60
2023/05/31 11:22:26;;;;;;;2.63;0.50;;;;;;;30.18;39.52;95264.94;5112482;28;20434;-62
2023/05/31 11:24:57;;;;;;;2.43;0.73;;;;;;;30.47;39.41;95337.50;5111903;28;20456;-61
2023/05/31 11:27:36;;;;;;;0.40;0.30;;;;;;;31.66;37.82;95326.31;5112338;28;20496;-61
2023/05/31 11:30:09;;;;;;;4.83;0.40;;;;;;;29.96;36.68;95280.59;5112005;28;20519;-61
2023/05/31 11:33:17;;;;;;;1.10;0.83;;;;;;;30.13;38.19;95314.53;5111686;28;20439;-60
2023/05/31 11:35:45;;;;;;;0.40;0.33;;;;;;;29.44;39.46;95327.84;5111889;28;20837;-60
2023/05/31 11:38:15;;;;;;;0.87;0.40;;;;;;;29.49;41.50;95322.78;5111757;28;21062;-61
2023/05/31 11:40:44;;;;;;;1.20;0.90;;;;;;;28.81;40.51;95334.72;5111674;28;21012;-60
2023/05/31 11:43:16;;;;;;;0.70;0.70;;;;;;;29.79;40.98;95324.34;5112123;28;20924;-61